• Join FlightAware (Why Join?)
  • Login
  • US Flag 
12:40PM EDT


 

Airport Tracker/Info


-or-


 

Live Flight TrackerFlight Track Log ✈ UPS1337 ✈ 16-Jul-2014 ✈ KPIE - KSDF

Flight Track Log - Related Links

Times and Time Zones

All times are in EDT time to prevent confusion due to time zone crossing. See the UPS1337 flight status page for this flight to view local times or setup timezone preferences in your user account.

Time Position Orientation Groundspeed Altitude Reporting Facility
EDT Latitude Longitude Course Direction KTS MPH feet Rate Location/Type
09:40PM 27.9000 -82.6833 180° South 171 197 1,200  Level Tampa TRACON
09:40PM 27.8667 -82.6833 180° South 173 199 2,400 2,520 Climbing Tampa TRACON
09:42PM 27.8106 -82.7144 206° Southwest 242 278 6,400 2,820 Climbing Miami Center
09:43PM 27.8767 -82.7336 346° North 272 313 10,000 2,400 Climbing Miami Center
09:44PM 27.9692 -82.7222 North 325 374 11,300 960 Climbing Miami Center
09:45PM 28.0822 -82.7156 North 393 452 12,100 1,920 Climbing Miami Center
09:46PM 28.2167 -82.7089 North 371 427 15,600 2,880 Climbing Jacksonville Center
09:47PM 28.3333 -82.7017 North 398 458 18,200 2,280 Climbing Jacksonville Center
09:52PM 28.9371 -82.7062 North 480 552 28,700 2,040 Climbing FlightAware ADS-B (KMCO)
09:53PM 29.0972 -82.6906 North 461 531 30,600 1,440 Climbing Jacksonville Center
09:54PM 29.2308 -82.6761 North 472 543 32,000 300 Climbing Jacksonville Center
09:59PM 29.9813 -82.6048 North 496 571 32,600 120 Climbing FlightAware ADS-B (KMCO)
10:01PM 30.1691 -82.5865 North 503 579 33,000 180 Climbing FlightAware ADS-B (KMCO)
10:01PM 30.2541 -82.5781 North 502 578 33,000  Level FlightAware ADS-B (KMCO)
10:02PM 30.3660 -82.5671 North 504 580 33,000  Level FlightAware ADS-B (KMCO)
10:03PM 30.5526 -82.5495 North 503 579 33,000  Level FlightAware ADS-B (KMCO)
10:04PM 30.6475 -82.5463 North 497 572 33,000  Level FlightAware ADS-B (KMCO)
10:05PM 30.7442 -82.5469 North 498 573 33,000  Level Jacksonville Center
10:05PM 30.7824 -82.5414 North 492 566 33,000  Level FlightAware ADS-B (KMCO)
10:07PM 31.0156 -82.5339 North 488 562 33,000  Level Jacksonville Center
10:08PM 31.1556 -82.5283 North 488 562 33,000  Level Jacksonville Center
10:10PM 31.4053 -82.5158 North 499 574 33,000  Level Atlanta Center
10:11PM 31.3758 -82.5088 North  Level FlightAware Approximate
10:11PM 31.5453 -82.5208 358° North 499 574 33,000  Level Atlanta Center
10:12PM 31.6731 -82.5528 348° North 485 558 33,000  Level Atlanta Center
10:13PM 31.7986 -82.5947 344° North 467 537 33,000  Level Atlanta Center
10:14PM 31.9244 -82.6367 344° North 467 537 33,000  Level Atlanta Center
10:15PM 32.0481 -82.6789 344° North 461 531 33,000  Level Atlanta Center
10:16PM 32.1717 -82.7211 344° North 461 531 33,000  Level Atlanta Center
10:17PM 32.2953 -82.7611 345° North 461 531 33,000  Level Atlanta Center
10:18PM 32.4231 -82.8061 343° North 461 531 33,000  Level Atlanta Center
10:19PM 32.5422 -82.8464 344° North 461 531 33,000  Level Atlanta Center
10:20PM 32.6658 -82.8867 345° North 455 524 33,000  Level Atlanta Center
10:21PM 32.8019 -82.9342 344° North 461 531 33,000  Level Atlanta Center
10:22PM 32.9214 -82.9747 344° North 456 525 33,000  Level Atlanta Center
10:23PM 33.0428 -83.0153 344° North 456 525 33,000  Level Atlanta Center
10:24PM 33.1536 -83.0539 344° North 456 525 33,000  Level Atlanta Center
10:25PM 33.2731 -83.0947 344° North 456 525 33,000  Level Atlanta Center
10:26PM 33.3903 -83.1356 344° North 450 518 33,000  Level Atlanta Center
10:27PM 33.5114 -83.1767 344° North 445 512 33,000  Level Atlanta Center
10:28PM 33.6453 -83.2228 344° North 445 512 33,000  Level Atlanta Center
10:29PM 33.7647 -83.2642 344° North 445 512 33,000  Level Atlanta Center
10:30PM 33.8839 -83.3031 345° North 439 505 33,000  Level Atlanta Center
10:31PM 34.0031 -83.3422 345° North 439 505 33,000  Level Atlanta Center
10:32PM 34.1222 -83.3764 347° North 439 505 33,000  Level Atlanta Center
10:33PM 34.2433 -83.4106 347° North 433 498 33,000  Level Atlanta Center
10:34PM 34.3625 -83.4450 347° North 433 498 33,000  Level Atlanta Center
10:35PM 34.4817 -83.4769 348° North 433 498 33,000 -360 Level Atlanta Center
10:36PM 34.6008 -83.5114 347° North 433 498 32,300 -540 Descending Atlanta Center
10:37PM 34.7200 -83.5486 346° North 433 498 32,000 -180 Descending Atlanta Center
10:38PM 34.8369 -83.5958 342° North 433 498 32,000  Level Atlanta Center
10:39PM 34.9372 -83.6461 338° Northwest 433 498 32,000  Level Atlanta Center
10:40PM 35.0522 -83.6989 339° North 433 498 32,000  Level Atlanta Center
10:41PM 35.1631 -83.7517 339° North 433 498 32,000  Level Atlanta Center
10:42PM 35.2778 -83.8022 340° North 433 498 32,000  Level Atlanta Center
10:43PM 35.3886 -83.8578 338° Northwest 433 498 32,000 -120 Level Atlanta Center
10:44PM 35.5011 -83.9086 340° North 433 498 31,800 -600 Descending Atlanta Center
10:45PM 35.6161 -83.9647 338° Northwest 433 498 30,800 -300 Descending Atlanta Center
10:50PM 36.2453 -84.2616 339° North 461 531 30,000 -180 Descending FlightAware ADS-B (KMDQ)
10:50PM 36.3014 -84.2886 339° North 458 527 30,000  Level Indianapolis Center
10:51PM 36.4194 -84.3456 339° North 458 527 30,000 -120 Level Indianapolis Center
10:52PM 36.5411 -84.4047 339° North 457 526 29,800 -600 Descending Indianapolis Center
10:53PM 36.6594 -84.4622 339° North 456 525 28,800 -900 Descending Indianapolis Center
10:54PM 36.7653 -84.5133 339° North 408 470 28,000 -1,620 Descending Indianapolis Center
11:00PM 37.2549 -84.7543 338° Northwest 335 386 19,000 -1,620 Descending FlightAware ADS-B (KBRY)
11:01PM 37.3813 -84.7868 359° North 345 397 17,700 -1,140 Descending FlightAware ADS-B (KBRY)
11:03PM 37.5942 -84.7960 358° North 329 379 15,100 -1,440 Descending FlightAware ADS-B (KBRY)
11:04PM 37.6697 -84.8361 298° West 283 326 13,100 -1,800 Descending FlightAware ADS-B (KBRY)
11:05PM 37.7036 -84.9242 295° West 274 315 11,500 -1,800 Descending FlightAware ADS-B (KBRY)
11:06PM 37.7369 -85.0105 298° West 276 318 9,600 -1,620 Descending FlightAware ADS-B (KBRY)
11:07PM 37.7721 -85.0914 300° West 277 319 8,300 -1,260 Descending FlightAware ADS-B (KBRY)
11:08PM 37.8120 -85.1808 300° West 275 316 7,100 -1,140 Descending FlightAware ADS-B (KBRY)
11:09PM 37.8507 -85.2675 299° West 269 310 6,000 -1,080 Descending FlightAware ADS-B (KBRY)
11:10PM 37.8850 -85.3458 299° West 267 307 5,000 -1,080 Descending FlightAware ADS-B (KBRY)
11:11PM 37.9221 -85.4302 299° West 263 303 3,900 -1,200 Descending FlightAware ADS-B (KBRY)
11:12PM 37.9558 -85.5096 297° West 253 291 2,700 -840 Descending FlightAware ADS-B (KBRY)
11:13PM 37.9876 -85.5878 298° West 237 273 2,300 -240 Descending FlightAware ADS-B (KBRY)
11:14PM 38.0136 -85.6534 298° West 194 223 2,300  Level FlightAware ADS-B (KBRY)
11:15PM 38.0559 -85.6867 345° North 174 200 2,300 -360 Level FlightAware ADS-B (KBRY)
11:16PM 38.0984 -85.7010 345° North 130 150 1,700 -660 Descending FlightAware ADS-B (KBRY)
11:17PM 38.1317 -85.7123 345° North 125 144 1,100 -660 Descending FlightAware ADS-B (KBRY)
11:25PM 38.1667 -85.7333 208° Southwest  Level FlightAware Approximate
11:26PM 38.1741 -85.7365 208° Southwest  Level Estimated